Flight Track Log - Related Links

Times and Time Zones

All times are in EDT time to prevent confusion due to time zone crossing. See the THY2476 flight status page for this flight to view local times or setup timezone preferences in your user account.

Time Position Orientation Groundspeed Altitude Reporting Facility
EDT Latitude Longitude Course Direction KTS MPH feet Rate Location/Type
Wed 06:53:00 PM 40.1415 30.2849 126° Southeast  Level Estimated
Wed 06:54:00 PM 40.0765 30.3960 127° Southeast  Level Estimated
Wed 06:55:00 PM 40.0114 30.5068 127° Southeast  Level Estimated
Wed 06:56:00 PM 39.9462 30.6175 128° Southeast  Level Estimated
Wed 06:57:00 PM 39.8809 30.7280 128° Southeast  Level Estimated
Wed 06:58:00 PM 39.8154 30.8382 128° Southeast  Level Estimated
Wed 06:59:00 PM 39.7499 30.9483 128° Southeast  Level Estimated
Wed 07:00:00 PM 39.6842 31.0581 128° Southeast  Level Estimated
Wed 07:01:00 PM 39.6185 31.1677 128° Southeast  Level Estimated
Wed 07:02:00 PM 39.5526 31.2771 128° Southeast  Level Estimated
Wed 07:03:00 PM 39.4867 31.3863 128° Southeast  Level Estimated
Wed 07:04:00 PM 39.4206 31.4953 128° Southeast  Level Estimated
Wed 07:05:00 PM 39.3545 31.6041 128° Southeast  Level Estimated
Wed 07:06:00 PM 39.2882 31.7127 128° Southeast  Level Estimated
Wed 07:07:00 PM 39.2219 31.8211 128° Southeast  Level Estimated
Wed 07:08:00 PM 39.1554 31.9292 128° Southeast  Level Estimated
Wed 07:09:00 PM 39.0888 32.0372 128° Southeast  Level Estimated
Wed 07:10:00 PM 39.0222 32.1450 129° Southeast  Level Estimated
Wed 07:11:00 PM 38.9554 32.2525 129° Southeast  Level Estimated
Wed 07:12:00 PM 38.8886 32.3599 129° Southeast  Level Estimated
Wed 07:13:00 PM 38.8216 32.4671 129° Southeast  Level Estimated
Wed 07:14:00 PM 38.7546 32.5740 129° Southeast  Level Estimated
Wed 07:15:00 PM 38.6874 32.6808 129° Southeast  Level Estimated
Wed 07:16:00 PM 38.6202 32.7873 129° Southeast  Level Estimated
Wed 07:17:00 PM 38.5528 32.8937 129° Southeast  Level Estimated
Wed 07:18:00 PM 38.4854 32.9999 129° Southeast  Level Estimated
Wed 07:19:00 PM 38.4179 33.1058 129° Southeast  Level Estimated
Wed 07:20:00 PM 38.3502 33.2116 129° Southeast  Level Estimated
Wed 07:21:00 PM 38.2825 33.3171 129° Southeast  Level Estimated
Wed 07:22:00 PM 38.2147 33.4225 129° Southeast  Level Estimated
Wed 07:23:00 PM 38.1468 33.5277 129° Southeast  Level Estimated
Wed 07:24:00 PM 38.0788 33.6326 129° Southeast  Level Estimated
Wed 07:25:00 PM 38.0107 33.7374 129° Southeast  Level Estimated
Wed 07:26:00 PM 37.9425 33.8420 130° Southeast  Level Estimated
Wed 07:27:00 PM 37.8742 33.9464 130° Southeast  Level Estimated
Wed 07:28:00 PM 37.8058 34.0506 130° Southeast  Level Estimated
Wed 07:29:00 PM 37.7374 34.1546 130° Southeast  Level Estimated
Wed 07:30:00 PM 37.6688 34.2584 130° Southeast  Level Estimated
Wed 07:31:00 PM 37.6002 34.3620 130° Southeast  Level Estimated
Wed 07:32:00 PM 37.5314 34.4655 130° Southeast  Level Estimated
Wed 07:33:00 PM 37.4626 34.5687 130° Southeast  Level Estimated
Wed 07:34:00 PM 37.3937 34.6717 130° Southeast  Level Estimated
Wed 07:35:00 PM 37.3246 34.7746 130° Southeast  Level Estimated
Wed 07:36:00 PM 37.2556 34.8773 130° Southeast  Level Estimated
Wed 07:37:00 PM 37.1864 34.9798 130° Southeast  Level Estimated
Wed 07:38:00 PM 37.1171 35.0821 130° Southeast  Level Estimated
Wed 07:39:00 PM 37.0477 35.1842 130° Southeast  Level Estimated
Wed 07:40:00 PM 36.9822 35.2804 130° Southeast  Level Estimated
Wed 07:41:00 PM 36.9822 35.2804 202° Southwest  Level Estimated
Wed 07:42:00 PM 36.9822 35.2804 202° Southwest  Level Estimated
Wed 07:43:00 PM 36.9822 35.2804 202° Southwest  Level Estimated
Wed 07:44:00 PM 36.9822 35.2804 202° Southwest  Level Estimated
Wed 07:45:00 PM 36.9822 35.2804 202° Southwest  Level Estimated
Wed 07:46:00 PM 36.9822 35.2804 202° Southwest  Level Estimated
Wed 07:47:00 PM 36.9822 35.2804 202° Southwest  Level Estimated
Wed 07:48:00 PM 36.9822 35.2804 202° Southwest  Level Estimated
Wed 07:49:00 PM 36.9822 35.2804 202° Southwest  Level Estimated
Wed 07:50:00 PM 36.9822 35.2804 202° Southwest  Level Estimated
Wed 07:51:00 PM 36.9822 35.2804 202° Southwest  Level Estimated
Wed 07:52:00 PM 36.9822 35.2804 202° Southwest  Level Estimated
Wed 07:53:00 PM 36.9822 35.2804 202° Southwest  Level Estimated
Wed 07:54:00 PM 36.9822 35.2804 202° Southwest  Level Estimated
Wed 07:55:00 PM 36.9822 35.2804 202° Southwest  Level Estimated
Wed 07:56:00 PM 36.9822 35.2804 202° Southwest  Level Estimated

Login

Don't have an account? Register now (free) for customized features, flight alerts, and more!